Kemptville, Canada
Current Conditions -  °F | °C
As of 3:00 PM on Monday 26 Jan 2015 (Local Time) from CYOW Reporting Station
Overcast Overcast  
Wind Chill: -8°   Ceiling: 20000
Heat Index:   Visibility: 15mi
Dew Point: -6°   Wind: 10mph
Humidity: 56%   Direction: 60°ENE
Pressure: 30.13"   Gusts: NA
Location:  45.02°N, 75.65°W
Report Text: CYOW 262000Z 06009KT 15SM FEW150 BKN200 OVC240 M14/M21 A3013 RMK AC2CI3CI3 SLP213
Loading
Personal Weather Stations






























Interactive Weather Map New forecast layout! Learn more

10-Day Weather Forecast

Advertisements
Track Severe Weather on mobile